Latest Weather Observations for Learmonth

IDW60801

Issued at 10:02 pm WST Friday 22 May 2015 (issued every 30 minutes, with the page automatically refreshed every 10 minutes)

About weather observations | Map of weather stations | Latest weather observations for WA | Other Formats
Station Details ID: 005007 Name: LEARMONTH AIRPORT Lat: -22.24 Lon: 114.10 Height: 5.0 m
Data from the previous 72 hours. | See also: Recent months at Learmonth
Date/Time
WST
Temp
°C
App
Temp
°C
Dew
Point
Rel
Hum
%
Delta-T
°C
Wind Press
QNH
hPa
Press
MSL
hPa
Rain
since 9 am
mm
Dir
 
Spd
km/h
Gust
km/h
Spd
kts
Gust
kts
22/10:00pm 19.8 20.6 17.3 85 1.5 SW 9 9 5 5 1017.8 - 0.0
22/09:30pm 20.0 20.3 16.9 82 1.9 WSW 11 13 6 7 1017.7 - 0.0
22/09:00pm 19.6 20.8 17.3 86 1.4 WSW 7 11 4 6 1017.7 1017.6 0.0
22/08:30pm 20.0 21.1 17.0 83 1.8 SW 7 9 4 5 1017.4 - 0.0
22/08:00pm 20.0 20.4 17.2 84 1.7 SW 11 13 6 7 1017.3 - 0.0
22/07:30pm 20.4 20.2 16.6 79 2.3 SW 13 15 7 8 1017.2 - 0.0
22/07:00pm 20.7 21.0 16.9 79 2.3 SW 11 13 6 7 1016.5 - 0.0
22/06:30pm 22.0 22.2 15.8 68 3.7 W 9 11 5 6 1016.0 - 0.0
22/06:00pm 21.8 23.0 16.9 73 3.0 NNW 6 7 3 4 1015.9 1015.8 0.0
22/05:30pm 22.2 23.4 16.8 71 3.3 N 6 7 3 4 1015.7 - 0.0
22/05:00pm 22.6 22.2 16.1 66 3.9 N 13 15 7 8 1015.7 - 0.0
22/04:30pm 23.4 23.3 16.0 63 4.5 NNE 11 13 6 7 1015.7 - 0.0
22/04:00pm 24.0 23.5 15.9 60 4.9 NNE 13 15 7 8 1015.5 - 0.0
22/03:30pm 24.8 23.8 13.5 49 6.6 NNE 11 15 6 8 1015.5 - 0.0
22/03:00pm 24.2 22.9 14.8 55 5.6 NE 15 17 8 9 1015.4 1015.3 0.0
22/02:30pm 24.6 23.7 14.9 54 5.8 NE 13 19 7 10 1015.5 - 0.0
22/02:00pm 24.5 23.4 14.4 53 6.0 NE 13 17 7 9 1015.7 - 0.0
22/01:30pm 24.6 23.6 14.5 53 6.0 ENE 13 17 7 9 1015.9 - 0.0
22/01:00pm 24.9 22.9 13.8 50 6.5 E 17 20 9 11 1016.1 - 0.0
22/12:30pm 24.1 23.2 14.9 56 5.5 E 13 17 7 9 1016.6 - 0.0
22/12:00pm 24.1 22.4 12.6 48 6.6 E 13 17 7 9 1017.1 1017.0 0.0
22/11:30am 23.7 23.6 15.9 61 4.7 ENE 11 15 6 8 1017.4 - 0.0
22/11:00am 23.2 22.8 15.3 61 4.7 ENE 11 17 6 9 1017.6 - 0.0
22/10:30am 23.5 23.7 14.7 57 5.2 E 7 11 4 6 1017.7 - 0.0
22/10:00am 22.6 23.6 15.4 64 4.3 SSE 4 7 2 4 1018.1 - 0.0
22/09:30am 21.1 21.6 15.5 70 3.3 SE 7 11 4 6 1018.3 - 0.0
22/09:00am 20.0 20.8 14.9 72 3.0 SSE 4 7 2 4 1018.2 1018.1 0.0
22/08:30am 18.8 19.4 15.2 79 2.1 SSW 6 7 3 4 1018.3 - 0.0
22/08:00am 17.0 16.8 14.6 86 1.4 WSW 9 11 5 6 1018.1 - 0.0
22/07:30am 15.4 14.4 13.4 88 1.1 WSW 11 13 6 7 1017.6 - 0.0
22/07:00am 14.9 13.8 13.1 89 1.0 WSW 11 11 6 6 1017.2 - 0.0
22/06:30am 14.4 12.9 13.1 92 0.7 SW 13 13 7 7 1017.1 - 0.0
22/06:00am 14.6 13.5 13.0 90 0.9 SW 11 13 6 7 1016.9 1016.8 0.0
22/05:30am 15.2 14.4 13.0 87 1.2 WSW 9 13 5 7 1016.8 - 0.0
22/05:00am 15.3 13.8 13.1 87 1.2 WSW 13 13 7 7 1016.7 - 0.0
22/04:30am 16.4 16.1 13.2 81 1.8 W 7 9 4 5 1016.7 - 0.0
22/04:00am 16.2 15.6 13.5 84 1.5 WSW 9 11 5 6 1016.8 - 0.0
22/03:30am 16.2 15.7 13.9 86 1.3 WSW 9 11 5 6 1016.8 - 0.0
22/03:00am 16.1 15.8 14.3 89 1.0 SW 9 11 5 6 1016.6 1016.5 0.0
22/02:30am 16.8 16.2 14.7 87 1.2 WSW 11 11 6 6 1016.8 - 0.0
22/02:00am 17.3 17.3 15.2 87 1.2 SW 9 11 5 6 1017.0 - 0.0
22/01:30am 17.2 16.7 15.8 91 0.8 SW 13 15 7 8 1017.1 - 0.0
22/01:00am 17.7 17.4 16.4 92 0.8 SSW 13 13 7 7 1017.1 - 0.0
22/12:30am 18.0 18.6 16.7 92 0.8 SW 9 11 5 6 1017.3 - 0.0
22/12:00am 18.1 18.1 16.2 89 1.1 SW 11 11 6 6 1017.5 1017.4 0.0
 
Date/Time
WST
Temp
°C
App
Temp
°C
Dew
Point
Rel
Hum
%
Delta-T
°C
Wind Press
QNH
hPa
Press
MSL
hPa
Rain
since 9 am
mm
Dir
 
Spd
km/h
Gust
km/h
Spd
kts
Gust
kts
21/11:30pm 17.9 17.9 16.2 90 1.0 SSW 11 13 6 7 1017.7 - 0.0
21/11:00pm 18.6 19.4 16.4 87 1.3 SSW 7 9 4 5 1017.6 - 0.0
21/10:30pm 19.9 20.5 15.9 78 2.4 WSW 7 9 4 5 1017.6 - 0.0
21/10:00pm 19.6 21.0 16.4 82 1.9 W 4 7 2 4 1017.4 - 0.0
21/09:30pm 19.4 20.3 16.6 84 1.7 W 7 7 4 4 1017.3 - 0.0
21/09:00pm 19.5 20.9 16.3 82 1.9 WSW 4 6 2 3 1017.1 1017.0 0.0
21/08:30pm 19.8 20.6 16.3 80 2.1 WSW 7 9 4 5 1017.0 - 0.0
21/08:00pm 20.2 20.5 16.0 77 2.5 WSW 9 9 5 5 1016.8 - 0.0
21/07:30pm 19.7 20.1 16.4 81 2.0 SW 9 13 5 7 1016.9 - 0.0
21/07:00pm 20.8 21.0 15.8 73 3.0 WSW 9 13 5 7 1016.7 - 0.0
21/06:30pm 22.3 23.0 17.1 72 3.2 W 9 13 5 7 1016.5 - 0.0
21/06:00pm 22.3 24.5 19.5 84 1.8 NNW 7 9 4 5 1016.1 1016.0 0.0
21/05:30pm 23.1 24.7 19.2 79 2.5 N 9 13 5 7 1015.8 - 0.0
21/05:00pm 23.7 24.3 17.6 68 3.8 N 11 15 6 8 1015.5 - 0.0
21/04:30pm 24.1 23.7 17.1 65 4.3 NNE 15 19 8 10 1015.3 - 0.0
21/04:00pm 24.4 23.4 15.6 58 5.3 NNE 15 19 8 10 1015.2 - 0.0
21/03:30pm 25.0 23.9 14.2 51 6.4 NNE 13 17 7 9 1015.2 - 0.0
21/03:00pm 24.1 23.1 15.5 58 5.2 NNE 15 19 8 10 1015.2 1015.1 0.0
21/02:30pm 24.2 23.4 15.2 57 5.4 NE 13 17 7 9 1015.4 - 0.0
21/02:00pm 24.8 24.3 13.7 50 6.5 NE 9 13 5 7 1015.6 - 0.0
21/01:30pm 24.4 23.8 13.4 50 6.4 NE 9 11 5 6 1015.9 - 0.0
21/01:00pm 24.1 23.7 15.1 57 5.4 ENE 11 15 6 8 1016.1 - 0.0
21/12:30pm 23.5 22.6 13.7 54 5.7 ENE 11 15 6 8 1016.5 - 0.0
21/12:00pm 23.0 21.9 14.3 58 5.1 E 13 19 7 10 1016.6 1016.5 0.0
21/11:30am 22.3 20.9 14.5 61 4.6 E 15 19 8 10 1017.0 - 0.0
21/11:00am 22.3 21.1 14.1 59 4.8 ESE 13 19 7 10 1017.3 - 0.0
21/10:30am 21.9 21.6 14.4 62 4.4 E 9 13 5 7 1018.1 - 0.0
21/10:00am 21.5 20.2 12.5 56 5.1 ESE 11 17 6 9 1017.9 - 0.0
21/09:30am 21.4 20.8 12.3 56 5.1 SSE 7 13 4 7 1017.9 - 0.0
21/09:00am 19.8 18.5 11.2 57 4.7 S 9 13 5 7 1017.7 1017.6 0.0
21/08:30am 18.6 17.7 12.5 67 3.4 SSW 9 11 5 6 1017.6 - 0.0
21/08:00am 16.0 16.5 14.1 88 1.1 SSW 4 6 2 3 1017.5 - 0.0
21/07:30am 14.8 14.2 13.4 91 0.8 S 9 11 5 6 1017.1 - 0.0
21/07:00am 13.8 12.8 12.3 91 0.8 SW 9 11 5 6 1016.9 - 0.0
21/06:30am 13.7 12.6 11.8 88 1.0 SW 9 11 5 6 1016.6 - 0.0
21/06:00am 14.2 12.6 11.6 84 1.4 SW 11 11 6 6 1016.4 1016.3 0.0
21/05:30am 14.3 13.5 11.7 84 1.4 SW 7 9 4 5 1016.1 - 0.0
21/05:00am 14.8 13.6 11.6 81 1.7 SW 9 9 5 5 1015.7 - 0.0
21/04:30am 15.1 13.1 11.6 79 1.9 SW 13 15 7 8 1015.7 - 0.0
21/04:00am 16.1 13.7 11.3 73 2.6 SSW 15 19 8 10 1015.6 - 0.0
21/03:30am 16.0 13.2 11.3 73 2.5 SSW 17 20 9 11 1015.7 - 0.0
21/03:00am 16.1 13.3 11.5 74 2.5 SSW 17 20 9 11 1015.8 1015.7 0.0
21/02:30am 16.2 13.5 11.6 74 2.5 SW 17 20 9 11 1015.8 - 0.0
21/02:00am 16.2 13.6 12.0 76 2.3 SSW 17 19 9 10 1016.0 - 0.0
21/01:30am 16.2 13.7 12.2 77 2.2 SW 17 19 9 10 1016.3 - 0.0
21/01:00am 16.5 13.9 12.1 75 2.4 SSW 17 20 9 11 1016.4 - 0.0
21/12:30am 16.6 14.1 12.4 76 2.3 SW 17 20 9 11 1016.8 - 0.0
21/12:00am 16.7 14.3 12.7 77 2.2 SW 17 20 9 11 1016.9 1016.8 0.0
 
Date/Time
WST
Temp
°C
App
Temp
°C
Dew
Point
Rel
Hum
%
Delta-T
°C
Wind Press
QNH
hPa
Press
MSL
hPa
Rain
since 9 am
mm
Dir
 
Spd
km/h
Gust
km/h
Spd
kts
Gust
kts
20/11:30pm 17.0 14.3 12.9 77 2.3 SSW 19 22 10 12 1017.0 - 0.0
20/11:00pm 17.6 15.0 13.1 75 2.5 SW 19 24 10 13 1017.5 - 0.0
20/10:30pm 17.3 15.5 14.5 83 1.6 SSW 17 19 9 10 1017.3 - 0.0
20/10:00pm 17.9 16.8 15.3 85 1.5 WSW 15 17 8 9 1017.4 - 0.0
20/09:30pm 17.8 17.0 15.2 85 1.5 WSW 13 15 7 8 1017.7 - 0.0
20/09:00pm 18.2 17.4 15.1 82 1.8 WSW 13 15 7 8 1017.6 1017.5 0.0
20/08:30pm 18.5 17.4 15.3 81 1.9 WSW 15 17 8 9 1017.6 - 0.0
20/08:00pm 18.2 17.5 15.3 83 1.7 WSW 13 15 7 8 1017.3 - 0.0
20/07:30pm 18.4 17.5 14.8 79 2.1 SW 13 17 7 9 1017.1 - 0.0
20/07:00pm 19.1 18.0 15.2 78 2.3 SW 15 15 8 8 1016.9 - 0.0
20/06:30pm 20.4 20.2 15.7 74 2.8 SSW 11 13 6 7 1016.6 - 0.0
20/06:00pm 21.9 22.7 16.3 70 3.4 SSE 7 9 4 5 1016.3 1016.2 0.0
20/05:30pm 23.2 23.9 15.7 62 4.5 E 6 7 3 4 1016.1 - 0.0
20/05:00pm 24.7 25.4 14.4 52 6.1 ENE 4 7 2 4 1015.8 - 0.0
20/04:30pm 24.6 24.9 14.5 53 6.0 ENE 6 7 3 4 1015.7 - 0.0
20/04:00pm 24.3 24.2 14.9 55 5.6 NE 9 11 5 6 1015.6 - 0.0
20/03:30pm 25.4 25.4 15.3 53 6.1 ENE 9 11 5 6 1015.9 - 0.0
20/03:00pm 25.3 24.8 13.7 48 6.8 E 9 13 5 7 1015.5 1015.4 0.0
20/02:30pm 25.5 24.3 12.9 45 7.3 SSE 11 15 6 8 1015.6 - 0.0
20/02:00pm 25.3 24.5 12.9 46 7.2 S 9 13 5 7 1015.7 - 0.0
20/01:30pm 24.5 22.8 12.5 47 6.9 S 13 19 7 10 1015.9 - 0.0
20/01:00pm 24.3 22.6 12.4 47 6.8 SSE 13 20 7 11 1016.4 - 0.0
20/12:30pm 23.4 21.5 11.9 48 6.5 SE 13 19 7 10 1016.3 - 0.0
20/12:00pm 24.5 22.3 12.0 45 7.1 SE 15 19 8 10 1017.2 1017.1 0.0
20/11:30am 23.7 22.1 11.4 46 6.9 SSE 11 17 6 9 1017.5 - 0.0
20/11:00am 22.8 20.1 10.4 45 6.8 S 15 20 8 11 1017.7 - 0.0
20/10:30am 21.5 19.2 10.3 49 6.1 S 13 17 7 9 1018.3 - 0.0
20/10:00am 20.9 18.6 10.4 51 5.7 S 13 20 7 11 1018.2 - 0.0
20/09:30am 19.6 16.9 10.3 55 5.0 SSW 15 20 8 11 1018.4 - 0.0
20/09:00am 18.5 15.8 10.2 58 4.4 SSW 15 19 8 10 1018.2 1018.1 0.0
20/08:30am 17.5 15.9 11.4 67 3.3 SW 11 15 6 8 1017.3 - 0.0
20/08:00am 16.3 14.4 11.7 74 2.5 SW 13 15 7 8 1017.5 - 0.0
20/07:30am 15.6 13.6 11.5 76 2.2 SW 13 17 7 9 1017.3 - 0.0
20/07:00am 14.3 12.5 10.9 80 1.8 WSW 11 13 6 7 1016.8 - 0.0
20/06:30am 14.0 11.4 10.8 81 1.7 SW 15 17 8 9 1016.8 - 0.0
20/06:00am 14.0 11.9 11.0 82 1.6 SW 13 15 7 8 1016.5 1016.4 0.0
20/05:30am 14.1 11.6 11.1 82 1.6 SW 15 17 8 9 1016.3 - 0.0
20/05:00am 14.1 12.0 11.1 82 1.6 SW 13 17 7 9 1016.3 - 0.0
20/04:30am 14.1 11.7 11.3 83 1.5 SW 15 19 8 10 1016.4 - 0.0
20/04:00am 14.2 12.2 11.4 83 1.5 SW 13 17 7 9 1016.2 - 0.0
20/03:30am 14.3 11.5 11.3 82 1.6 SW 17 19 9 10 1016.3 - 0.0
20/03:00am 14.4 12.1 11.6 83 1.5 SW 15 17 8 9 1016.5 1016.4 0.0
20/02:30am 14.4 12.1 11.6 83 1.5 SW 15 17 8 9 1016.8 - 0.0
20/02:00am 14.6 12.3 11.6 82 1.6 SW 15 17 8 9 1016.9 - 0.0
20/01:30am 14.8 12.9 11.8 82 1.6 SW 13 17 7 9 1016.8 - 0.0
20/01:00am 15.1 12.8 11.8 81 1.8 SW 15 17 8 9 1016.8 - 0.0
20/12:30am 15.1 13.1 11.6 79 1.9 SSW 13 15 7 8 1016.9 - 0.0
20/12:00am 14.9 13.0 11.9 82 1.6 SW 13 13 7 7 1017.0 1016.9 0.0
 
Date/Time
WST
Temp
°C
App
Temp
°C
Dew
Point
Rel
Hum
%
Delta-T
°C
Wind Press
QNH
hPa
Press
MSL
hPa
Rain
since 9 am
mm
Dir
 
Spd
km/h
Gust
km/h
Spd
kts
Gust
kts
19/11:30pm 15.0 13.2 12.0 82 1.6 SSW 13 15 7 8 1017.2 - 0.0
19/11:00pm 15.5 13.3 12.0 79 1.9 SSW 15 15 8 8 1017.2 - 0.0
19/10:30pm 16.6 13.5 11.6 72 2.7 SSW 19 22 10 12 1017.1 - 0.0

Other Formats:

Comma delimited format used in spreadsheet applications
http://www.bom.gov.au/fwo/IDW60801/IDW60801.94302.axf

JavaScript Object Notation format (JSON) in row-major order
http://www.bom.gov.au/fwo/IDW60801/IDW60801.94302.json